This is the latest recevied weather packets stored in our database for station/object TULLARI. If no packets are shown the sender has not sent any weather packets the latest 10 day(s).
| Time | Temp. | Humidity | Pressure | Rain* | Wind** | Luminosity | Snow |
|---|---|---|---|---|---|---|---|
| 1777819635 | 7.78° C | 88% | 1009 hPa | - | - | - | - |
| 1777818434 | 7.78° C | 90% | 1009 hPa | - | - | - | - |
| 1777817235 | 7.78° C | 88% | 1009 hPa | - | - | - | - |
| 1777816035 | 7.78° C | 87% | 1009 hPa | - | - | - | - |
| 1777814834 | 8.33° C | 83% | 1009 hPa | - | - | - | - |
| 1777813634 | 7.78° C | 89% | 1009 hPa | - | - | - | - |
| 1777812435 | 7.78° C | 87% | 1009 hPa | - | - | - | - |
| 1777811235 | 8.89° C | 84% | 1009 hPa | - | - | - | - |
| 1777810034 | 10.56° C | 77% | 1009 hPa | - | - | - | - |
| 1777808835 | 10.56° C | 77% | 1009 hPa | - | - | - | - |
| 1777807634 | 10.56° C | 77% | 1008.9 hPa | - | - | - | - |
| 1777806434 | 10° C | 78% | 1009 hPa | - | - | - | - |
| 1777805239 | 8.33° C | 87% | 1009.3 hPa | - | - | - | - |
| 1777804035 | 9.44° C | 81% | 1009.1 hPa | - | - | - | - |
| 1777802834 | 10.56° C | 79% | 1009 hPa | - | - | - | - |
| 1777801634 | 9.44° C | 81% | 1009.1 hPa | - | - | - | - |
| 1777800434 | 7.78° C | 89% | 1009.2 hPa | - | - | - | - |
| 1777799234 | 7.22° C | 91% | 1009.2 hPa | - | - | - | - |
| 1777798034 | 7.22° C | 89% | 1009.1 hPa | - | - | - | - |
| 1777796834 | 7.78° C | 90% | 1008.9 hPa | - | - | - | - |
| 1777795634 | 7.78° C | 90% | 1008.7 hPa | - | - | - | - |
| 1777794433 | 8.33° C | 84% | 1008.6 hPa | - | - | - | - |
| 1777793233 | 7.78° C | 89% | 1008.4 hPa | - | - | - | - |
| 1777792033 | 8.89° C | 80% | 1008 hPa | - | - | - | - |
| 1777790833 | 8.33° C | 85% | 1007.9 hPa | - | - | - | - |
* Rain since midnight (hover to see other rain measurements)
** Current wind speed in m/s (hover to see current wind gust speed)